Time,TemperatureF,DewpointF,PressureIn,WindDirection,WindDirectionDegrees,WindSpeedMPH,WindSpeedGustMPH,Humidity,HourlyPrecipIn,Conditions,Clouds,dailyrainin,SoftwareType,DateUTC
2013-09-08 00:09:00,59.9,52.0,29.77,SSW,202,0.0,2.0,76,0.00,,,0.00,weatherlink.com 1.10,2013-09-08 04:09:00,
2013-09-08 00:24:00,60.3,53.0,29.76,South,190,0.0,3.0,77,0.00,,,0.00,weatherlink.com 1.10,2013-09-08 04:24:00,
2013-09-08 00:38:00,60.3,53.0,29.76,South,190,0.0,0.0,76,0.00,,,0.00,weatherlink.com 1.10,2013-09-08 04:38:00,
2013-09-08 00:54:00,59.9,52.0,29.76,SSW,213,0.0,1.0,76,0.00,,,0.00,weatherlink.com 1.10,2013-09-08 04:54:00,
2013-09-08 01:09:00,59.8,52.0,29.76,SSW,213,0.0,0.0,75,0.00,,,0.00,weatherlink.com 1.10,2013-09-08 05:09:00,
2013-09-08 01:24:00,60.1,53.0,29.75,NE,48,0.0,0.0,76,0.00,,,0.00,weatherlink.com 1.10,2013-09-08 05:24:00,
2013-09-08 01:39:00,59.7,52.0,29.75,NNE,17,0.0,0.0,77,0.00,,,0.00,weatherlink.com 1.10,2013-09-08 05:39:00,
2013-09-08 01:54:00,60.1,52.0,29.74,NE,38,0.0,4.0,75,0.00,,,0.00,weatherlink.com 1.10,2013-09-08 05:54:00,
2013-09-08 02:09:00,60.4,52.0,29.74,NE,39,0.0,3.0,73,0.00,,,0.00,weatherlink.com 1.10,2013-09-08 06:09:00,
2013-09-08 02:24:00,60.5,52.0,29.73,ENE,63,0.0,0.0,73,0.00,,,0.00,weatherlink.com 1.10,2013-09-08 06:24:00,
2013-09-08 02:39:00,60.5,53.0,29.73,SW,217,0.0,3.0,75,0.00,,,0.00,weatherlink.com 1.10,2013-09-08 06:39:00,
2013-09-08 02:54:00,59.6,53.0,29.72,SW,217,0.0,0.0,78,0.00,,,0.00,weatherlink.com 1.10,2013-09-08 06:54:00,
2013-09-08 03:09:00,59.8,52.0,29.72,NE,40,1.0,7.0,76,0.00,,,0.00,weatherlink.com 1.10,2013-09-08 07:09:00,
2013-09-08 03:24:00,59.9,53.0,29.71,SSE,153,0.0,1.0,79,0.00,,,0.00,weatherlink.com 1.10,2013-09-08 07:24:00,
2013-09-08 03:39:00,58.7,53.0,29.72,South,179,0.0,2.0,81,0.00,,,0.00,weatherlink.com 1.10,2013-09-08 07:39:00,
2013-09-08 03:54:00,58.8,53.0,29.71,WNW,298,3.0,3.0,81,0.00,,,0.00,weatherlink.com 1.10,2013-09-08 07:54:00,
2013-09-08 04:09:00,60.5,54.0,29.71,SSW,206,2.0,6.0,78,0.00,,,0.00,weatherlink.com 1.10,2013-09-08 08:09:00,
2013-09-08 04:24:00,61.3,54.0,29.70,SW,236,0.0,1.0,77,0.00,,,0.00,weatherlink.com 1.10,2013-09-08 08:24:00,
2013-09-08 04:39:00,61.0,54.0,29.70,SSE,165,2.0,5.0,77,0.00,,,0.00,weatherlink.com 1.10,2013-09-08 08:39:00,
2013-09-08 04:55:00,58.9,54.0,29.71,SSE,153,0.0,5.0,83,0.00,,,0.00,weatherlink.com 1.10,2013-09-08 08:55:00,
2013-09-08 05:10:00,57.9,54.0,29.71,SSW,213,0.0,5.0,85,0.00,,,0.00,weatherlink.com 1.10,2013-09-08 09:10:00,
2013-09-08 05:25:00,58.1,53.0,29.71,South,180,0.0,3.0,84,0.00,,,0.00,weatherlink.com 1.10,2013-09-08 09:25:00,
2013-09-08 05:40:00,58.4,54.0,29.71,SW,231,3.0,6.0,84,0.00,,,0.00,weatherlink.com 1.10,2013-09-08 09:40:00,
2013-09-08 05:55:00,58.5,54.0,29.70,South,186,0.0,2.0,84,0.00,,,0.00,weatherlink.com 1.10,2013-09-08 09:55:00,
2013-09-08 06:10:00,58.0,54.0,29.70,SSE,161,0.0,0.0,85,0.00,,,0.00,weatherlink.com 1.10,2013-09-08 10:10:00,
2013-09-08 06:25:00,58.2,54.0,29.70,SW,214,0.0,3.0,85,0.00,,,0.00,weatherlink.com 1.10,2013-09-08 10:25:00,
2013-09-08 06:40:00,58.9,54.0,29.70,SSW,193,0.0,3.0,84,0.00,,,0.00,weatherlink.com 1.10,2013-09-08 10:40:00,
2013-09-08 06:55:00,58.6,54.0,29.71,SSW,198,0.0,0.0,83,0.00,,,0.00,weatherlink.com 1.10,2013-09-08 10:55:00,
2013-09-08 07:10:00,58.3,54.0,29.70,SSW,196,0.0,2.0,84,0.00,,,0.00,weatherlink.com 1.10,2013-09-08 11:10:00,
2013-09-08 07:25:00,58.6,53.0,29.70,South,189,0.0,4.0,82,0.00,,,0.00,weatherlink.com 1.10,2013-09-08 11:25:00,
2013-09-08 07:40:00,58.6,53.0,29.70,SSW,198,0.0,3.0,82,0.00,,,0.00,weatherlink.com 1.10,2013-09-08 11:40:00,
2013-09-08 07:55:00,58.6,54.0,29.70,SW,215,0.0,2.0,84,0.00,,,0.00,weatherlink.com 1.10,2013-09-08 11:55:00,
2013-09-08 08:10:00,58.8,54.0,29.70,NNE,30,0.0,2.0,84,0.00,,,0.00,weatherlink.com 1.10,2013-09-08 12:10:00,
2013-09-08 08:25:00,58.8,54.0,29.70,NNE,31,2.0,2.0,84,0.00,,,0.00,weatherlink.com 1.10,2013-09-08 12:25:00,
2013-09-08 08:40:00,59.0,55.0,29.70,NNE,31,0.0,0.0,85,0.00,,,0.00,weatherlink.com 1.10,2013-09-08 12:40:00,
2013-09-08 08:55:00,59.4,55.0,29.71,NE,40,0.0,3.0,85,0.00,,,0.00,weatherlink.com 1.10,2013-09-08 12:55:00,
2013-09-08 09:10:00,59.7,55.0,29.71,NE,40,0.0,0.0,85,0.00,,,0.00,weatherlink.com 1.10,2013-09-08 13:10:00,
2013-09-08 09:25:00,60.1,56.0,29.71,NE,40,0.0,0.0,85,0.00,,,0.00,weatherlink.com 1.10,2013-09-08 13:25:00,
2013-09-08 09:40:00,60.6,55.0,29.72,NNE,28,1.0,5.0,82,0.00,,,0.00,weatherlink.com 1.10,2013-09-08 13:40:00,
2013-09-08 09:55:00,60.3,55.0,29.73,NE,45,4.0,4.0,82,0.00,,,0.00,weatherlink.com 1.10,2013-09-08 13:55:00,
2013-09-08 10:10:00,59.3,54.0,29.73,NNE,19,4.0,8.0,81,0.00,,,0.00,weatherlink.com 1.10,2013-09-08 14:10:00,
2013-09-08 10:25:00,59.8,54.0,29.73,ENE,62,3.0,7.0,80,0.00,,,0.00,weatherlink.com 1.10,2013-09-08 14:25:00,
2013-09-08 10:40:00,60.7,53.0,29.74,NNW,335,2.0,8.0,76,0.00,,,0.00,weatherlink.com 1.10,2013-09-08 14:40:00,
2013-09-08 10:55:00,60.4,52.0,29.74,SSW,198,0.0,6.0,73,0.00,,,0.00,weatherlink.com 1.10,2013-09-08 14:55:00,
2013-09-08 11:10:00,60.7,52.0,29.75,NNE,24,3.0,4.0,72,0.00,,,0.00,weatherlink.com 1.10,2013-09-08 15:10:00,
2013-09-08 11:25:00,61.4,47.0,29.75,ENE,74,0.0,9.0,59,0.00,,,0.00,weatherlink.com 1.10,2013-09-08 15:25:00,
2013-09-08 11:40:00,61.9,46.0,29.75,NE,55,2.0,7.0,56,0.00,,,0.00,weatherlink.com 1.10,2013-09-08 15:40:00,
2013-09-08 11:55:00,61.6,46.0,29.75,NE,38,1.0,5.0,57,0.00,,,0.00,weatherlink.com 1.10,2013-09-08 15:55:00,
2013-09-08 12:10:00,61.6,45.0,29.76,NNE,31,3.0,12.0,54,0.00,,,0.00,weatherlink.com 1.10,2013-09-08 16:10:00,
2013-09-08 12:25:00,61.3,43.0,29.76,NE,53,1.0,7.0,52,0.00,,,0.00,weatherlink.com 1.10,2013-09-08 16:25:00,
2013-09-08 12:40:00,61.4,43.0,29.77,ENE,57,2.0,13.0,52,0.00,,,0.00,weatherlink.com 1.10,2013-09-08 16:40:00,
2013-09-08 12:55:00,61.4,43.0,29.78,North,5,0.0,12.0,52,0.00,,,0.00,weatherlink.com 1.10,2013-09-08 16:55:00,
2013-09-08 13:10:00,61.6,43.0,29.79,NE,52,2.0,10.0,51,0.00,,,0.00,weatherlink.com 1.10,2013-09-08 17:10:00,
2013-09-08 13:25:00,60.5,42.0,29.80,ENE,57,7.0,16.0,51,0.00,,,0.00,weatherlink.com 1.10,2013-09-08 17:25:00,
2013-09-08 13:40:00,60.8,43.0,29.81,NNE,13,2.0,9.0,52,0.00,,,0.00,weatherlink.com 1.10,2013-09-08 17:40:00,
2013-09-08 13:55:00,61.9,42.0,29.81,ENE,78,4.0,15.0,49,0.00,,,0.00,weatherlink.com 1.10,2013-09-08 17:55:00,
2013-09-08 14:10:00,61.5,44.0,29.81,NE,49,4.0,16.0,53,0.00,,,0.00,weatherlink.com 1.10,2013-09-08 18:10:00,
2013-09-08 14:25:00,61.3,45.0,29.82,NE,44,2.0,14.0,55,0.00,,,0.00,weatherlink.com 1.10,2013-09-08 18:25:00,
2013-09-08 14:40:00,58.8,43.0,29.83,NNE,23,0.0,11.0,56,0.00,,,0.00,weatherlink.com 1.10,2013-09-08 18:40:00,
2013-09-08 14:55:00,59.4,43.0,29.84,WNW,291,1.0,9.0,54,0.00,,,0.00,weatherlink.com 1.10,2013-09-08 18:55:00,
2013-09-08 15:10:00,58.6,42.0,29.84,NE,47,0.0,10.0,54,0.00,,,0.00,weatherlink.com 1.10,2013-09-08 19:10:00,
2013-09-08 15:25:00,60.9,43.0,29.84,SW,216,0.0,7.0,52,0.00,,,0.00,weatherlink.com 1.10,2013-09-08 19:25:00,
2013-09-08 15:40:00,59.3,41.0,29.84,NE,36,3.0,5.0,52,0.00,,,0.00,weatherlink.com 1.10,2013-09-08 19:40:00,
2013-09-08 15:55:00,59.3,43.0,29.85,North,350,3.0,6.0,55,0.00,,,0.00,weatherlink.com 1.10,2013-09-08 19:55:00,
2013-09-08 16:10:00,60.5,42.0,29.85,NNW,343,1.0,7.0,50,0.00,,,0.00,weatherlink.com 1.10,2013-09-08 20:10:00,
2013-09-08 16:26:00,60.5,40.0,29.86,East,88,2.0,9.0,48,0.00,,,0.00,weatherlink.com 1.10,2013-09-08 20:26:00,
2013-09-08 16:41:00,60.6,41.0,29.86,NE,53,0.0,5.0,48,0.00,,,0.00,weatherlink.com 1.10,2013-09-08 20:41:00,
2013-09-08 16:56:00,60.0,40.0,29.87,NW,316,0.0,9.0,48,0.00,,,0.00,weatherlink.com 1.10,2013-09-08 20:56:00,
2013-09-08 17:11:00,59.7,40.0,29.88,NE,50,0.0,6.0,49,0.00,,,0.00,weatherlink.com 1.10,2013-09-08 21:11:00,
2013-09-08 17:26:00,59.4,40.0,29.88,East,86,0.0,6.0,49,0.00,,,0.00,weatherlink.com 1.10,2013-09-08 21:26:00,
2013-09-08 17:41:00,59.1,39.0,29.89,NE,34,0.0,5.0,47,0.00,,,0.00,weatherlink.com 1.10,2013-09-08 21:41:00,
2013-09-08 17:56:00,58.4,41.0,29.90,ENE,64,0.0,0.0,52,0.00,,,0.00,weatherlink.com 1.10,2013-09-08 21:56:00,
2013-09-08 18:11:00,57.0,43.0,29.90,ENE,64,0.0,0.0,59,0.00,,,0.00,weatherlink.com 1.10,2013-09-08 22:11:00,
2013-09-08 18:26:00,56.0,43.0,29.91,ENE,64,0.0,0.0,63,0.00,,,0.00,weatherlink.com 1.10,2013-09-08 22:26:00,
2013-09-08 18:41:00,55.1,45.0,29.91,ENE,64,0.0,0.0,69,0.00,,,0.00,weatherlink.com 1.10,2013-09-08 22:41:00,
2013-09-08 18:56:00,53.8,44.0,29.93,ENE,64,0.0,0.0,69,0.00,,,0.00,weatherlink.com 1.10,2013-09-08 22:56:00,
2013-09-08 19:11:00,52.8,43.0,29.94,ENE,64,0.0,0.0,69,0.00,,,0.00,weatherlink.com 1.10,2013-09-08 23:11:00,
2013-09-08 19:26:00,52.2,43.0,29.94,ENE,64,0.0,0.0,71,0.00,,,0.00,weatherlink.com 1.10,2013-09-08 23:26:00,
2013-09-08 19:41:00,51.9,41.0,29.95,ENE,64,0.0,0.0,67,0.00,,,0.00,weatherlink.com 1.10,2013-09-08 23:41:00,
2013-09-08 19:56:00,51.7,42.0,29.97,ENE,64,0.0,0.0,69,0.00,,,0.00,weatherlink.com 1.10,2013-09-08 23:56:00,
2013-09-08 20:11:00,51.1,40.0,29.97,NE,39,0.0,2.0,67,0.00,,,0.00,weatherlink.com 1.10,2013-09-09 00:11:00,
2013-09-08 20:26:00,52.4,39.0,29.98,NNE,30,0.0,3.0,61,0.00,,,0.00,weatherlink.com 1.10,2013-09-09 00:26:00,
2013-09-08 20:41:00,53.1,40.0,29.99,ENE,58,0.0,2.0,62,0.00,,,0.00,weatherlink.com 1.10,2013-09-09 00:41:00,
2013-09-08 20:56:00,50.7,42.0,30.00,North,5,0.0,1.0,73,0.00,,,0.00,weatherlink.com 1.10,2013-09-09 00:56:00,
2013-09-08 21:11:00,48.5,42.0,30.01,North,5,0.0,0.0,77,0.00,,,0.00,weatherlink.com 1.10,2013-09-09 01:11:00,
2013-09-08 21:26:00,47.4,42.0,30.01,North,5,0.0,0.0,80,0.00,,,0.00,weatherlink.com 1.10,2013-09-09 01:26:00,
2013-09-08 21:42:00,46.5,41.0,30.02,WNW,287,0.0,0.0,81,0.00,,,0.00,weatherlink.com 1.10,2013-09-09 01:42:00,
2013-09-08 21:57:00,46.3,40.0,30.03,WNW,287,0.0,0.0,80,0.00,,,0.00,weatherlink.com 1.10,2013-09-09 01:57:00,
2013-09-08 22:12:00,46.6,40.0,30.03,West,267,0.0,2.0,78,0.00,,,0.00,weatherlink.com 1.10,2013-09-09 02:12:00,
2013-09-08 22:27:00,47.0,40.0,30.04,North,355,0.0,3.0,76,0.00,,,0.00,weatherlink.com 1.10,2013-09-09 02:27:00,
2013-09-08 22:42:00,47.6,39.0,30.04,NE,37,0.0,3.0,72,0.00,,,0.00,weatherlink.com 1.10,2013-09-09 02:42:00,
2013-09-08 22:57:00,47.3,39.0,30.04,NE,37,0.0,1.0,74,0.00,,,0.00,weatherlink.com 1.10,2013-09-09 02:57:00,
2013-09-08 23:12:00,46.9,39.0,30.04,NE,37,0.0,0.0,75,0.00,,,0.00,weatherlink.com 1.10,2013-09-09 03:12:00,
2013-09-08 23:27:00,45.9,39.0,30.04,NE,37,0.0,0.0,77,0.00,,,0.00,weatherlink.com 1.10,2013-09-09 03:27:00,
2013-09-08 23:42:00,45.2,39.0,30.05,NE,37,0.0,0.0,79,0.00,,,0.00,weatherlink.com 1.10,2013-09-09 03:42:00,
2013-09-08 23:57:00,44.4,39.0,30.05,NE,37,0.0,0.0,81,0.00,,,0.00,weatherlink.com 1.10,2013-09-09 03:57:00,